43分钟前
罗盘
风向 的 风向 240° Burlington Executive 14/32
风: 6 千吨, 2 beaufort
0 500 1.500 3.000 5.000 8.000 10.000
FEW 4.400 ft
OVC 5.900 ft
METAR CYHM 291700Z 24006KT 15SM FEW044 OVC059 M02/M04 A3000 RMK SC2SC6 SLP173

METAR定义 | 嵌入

24小时趋势

航班类别VFRLIFR
温度0 °C-7 °C
风速7 千吨0 千吨
能见度24 公里0 米

更多历史数据

下载我们的安卓应用程序

从你的主屏幕上轻松地访问你的航空天气。
只需一次付费,您就可以获得无广告的体验。

您会帮助我们保持Metar-Taf.com正常运行吗?
您的贡献有助于网站的进一步开发并支付费用。

没有更多广告

您是捐款5美元还是更多?然后,我们将永远不会再向您展示广告,这是我们永恒的感谢!
捐赠前先登录

METAR Burlington Executive

Burlington Executive是Burlington,加拿大中的小机场。 机场有{a,plural,=1{一条跑道} other{#跑道}}: 9/27 和 14/32

Burlington Executive最近未发布观察结果。相反,我们向您显示31 km的报告John C. Munro Hamilton International Airport。 该报告是针对2021年11月29日 12:00, 当地时间进行的。

机场观察

风来自西南西 (240°)方向,速度为6 千吨。

可见度为24 公里。

有几云在4.400 ft的高度 和 乌云密布在5.900 ft的高度。 破损或更高的上限为5.900 ft。

温度为-2 °C,阵风为-8 °C。 露点为-4 °C,相对湿度为86%。 海平面上的气压为1016 压力 (QNH)。

评论

  • 海平面压力为1017,3 压力 (SLP173)
  • SC2SC6

白天

今天,太阳从07:30升起,在16:45降落。 这适用于Burlington Executive,世界夏令时可能有所不同。 当地时间与世界标准时间之间的时差为-5 小时。 当前,没有夏令时有效。

公司介绍

我们没有关于这个机场的公司信息。

体会

到Vliegles.nl去找飞行课程,跳伞和其他飞行体验。 浏览页面,了解Burlington Executive附近所有可用的活动。 你也可以使用搜索功能来寻找你所在地附近的特定飞行课程、跳伞或其他飞行体验。

您是否要在网站上Burlington Executive飞行的天气? 阅读更多   自由!